createdAt,value
2023-03-01T00:10:02.889Z,16.40
2023-03-01T00:20:24.857Z,18.00
2023-03-01T00:30:46.697Z,17.98
2023-03-01T00:41:10.697Z,18.73
2023-03-01T00:51:32.390Z,17.40
2023-03-01T01:01:54.014Z,18.73
2023-03-01T01:12:17.479Z,18.17
2023-03-01T01:22:38.541Z,20.10
2023-03-01T01:32:59.776Z,21.50
2023-03-01T01:43:30.172Z,20.30
2023-03-01T01:53:56.455Z,18.75
2023-03-01T02:04:18.331Z,17.88
2023-03-01T02:14:39.765Z,22.60
2023-03-01T02:25:04.394Z,21.77
2023-03-01T02:35:25.512Z,22.63
2023-03-01T02:45:53.743Z,22.27
2023-03-01T03:06:36.150Z,22.42
2023-03-01T03:16:57.837Z,22.00
2023-03-01T03:27:18.788Z,19.58
2023-03-01T03:38:00.113Z,19.15
2023-03-01T03:48:22.035Z,21.05
2023-03-01T03:58:43.579Z,20.52
2023-03-01T04:09:06.071Z,23.83
2023-03-01T04:19:28.473Z,22.60
2023-03-01T04:29:49.573Z,22.48
2023-03-01T04:40:17.373Z,20.83
2023-03-01T04:50:38.606Z,20.38
2023-03-01T05:00:59.652Z,25.08
2023-03-01T05:11:21.870Z,23.38
2023-03-01T05:22:05.354Z,22.30
2023-03-01T05:32:27.041Z,22.70
2023-03-01T05:42:57.556Z,20.70
2023-03-01T05:53:22.280Z,25.08
2023-03-01T06:03:43.894Z,22.67
2023-03-01T06:14:05.722Z,24.13
2023-03-01T06:24:27.139Z,22.85
2023-03-01T06:34:48.454Z,21.58
2023-03-01T06:45:10.406Z,22.40
2023-03-01T06:55:32.304Z,23.98
2023-03-01T07:05:53.797Z,21.17
2023-03-01T07:16:15.753Z,27.70
2023-03-01T07:26:37.601Z,22.73
2023-03-01T07:36:58.958Z,21.10
2023-03-01T07:47:20.452Z,21.73
2023-03-01T07:57:41.697Z,23.80
2023-03-01T08:08:02.783Z,20.67
2023-03-01T08:18:24.169Z,23.60
2023-03-01T08:28:46.748Z,22.10
2023-03-01T08:39:09.709Z,24.67
2023-03-01T08:49:31.005Z,25.38
2023-03-01T08:59:52.039Z,26.70
2023-03-01T09:10:13.318Z,26.13
2023-03-01T09:20:34.587Z,26.27
2023-03-01T09:31:00.692Z,27.02
2023-03-01T09:41:32.772Z,28.37
2023-03-01T09:51:59.090Z,23.88
2023-03-01T10:02:39.947Z,26.30
2023-03-01T10:13:07.621Z,23.85
2023-03-01T10:23:31.941Z,22.35
2023-03-01T10:33:56.083Z,23.58
2023-03-01T10:44:44.099Z,20.15
2023-03-01T10:55:31.467Z,21.80
2023-03-01T11:06:03.032Z,22.57
2023-03-01T11:16:32.464Z,19.70
2023-03-01T11:26:56.093Z,22.00
2023-03-01T11:37:37.696Z,20.92
2023-03-01T11:48:48.451Z,17.08
2023-03-01T11:59:33.232Z,19.60
2023-03-01T12:10:18.814Z,21.20
2023-03-01T12:20:46.630Z,19.23
2023-03-01T12:31:30.532Z,17.47
2023-03-01T12:42:24.175Z,18.92
2023-03-01T12:52:46.380Z,17.05
2023-03-01T13:03:08.122Z,18.00
2023-03-01T13:13:31.475Z,16.55
2023-03-01T13:23:54.003Z,19.02
2023-03-01T13:34:44.485Z,19.92
2023-03-01T13:45:30.048Z,21.20
2023-03-01T13:55:59.812Z,15.52
2023-03-01T14:06:24.611Z,20.50
2023-03-01T14:17:16.184Z,17.00
2023-03-01T14:27:43.507Z,17.27
2023-03-01T14:38:04.784Z,16.30
2023-03-01T14:48:26.365Z,18.80
2023-03-01T14:58:51.247Z,17.40
2023-03-01T15:09:19.806Z,17.17
2023-03-01T15:19:41.416Z,17.90
2023-03-01T15:30:04.416Z,14.40
2023-03-01T15:40:32.820Z,16.38
2023-03-01T15:50:59.274Z,17.02
2023-03-01T16:01:20.523Z,13.27
2023-03-01T16:11:43.564Z,15.82
2023-03-01T16:22:05.078Z,15.23
2023-03-01T16:32:26.505Z,13.95
2023-03-01T16:42:49.342Z,12.80
2023-03-01T16:53:10.573Z,17.10
2023-03-01T17:03:32.108Z,14.63
2023-03-01T17:13:53.267Z,15.23
2023-03-01T17:24:14.410Z,14.70
2023-03-01T17:34:35.857Z,16.38
2023-03-01T17:44:56.819Z,13.52
2023-03-01T17:55:17.993Z,15.32
2023-03-01T18:05:39.251Z,13.73
2023-03-01T18:16:01.937Z,17.80
2023-03-01T18:26:25.480Z,14.55
2023-03-01T18:37:00.489Z,14.68
2023-03-01T18:47:28.581Z,15.00
2023-03-01T18:57:49.812Z,14.18
2023-03-01T19:08:10.669Z,17.40
2023-03-01T19:18:32.148Z,16.13
2023-03-01T19:28:53.298Z,15.43
2023-03-01T19:39:14.813Z,17.30
2023-03-01T19:49:37.953Z,15.93
2023-03-01T19:59:59.634Z,15.77
2023-03-01T20:10:20.841Z,14.00
2023-03-01T20:20:42.618Z,17.77
2023-03-01T20:31:11.757Z,15.15
2023-03-01T20:41:33.178Z,17.60
2023-03-01T20:51:54.289Z,17.48
2023-03-01T21:02:15.237Z,15.27
2023-03-01T21:12:36.619Z,17.45
2023-03-01T21:22:58.021Z,15.77
2023-03-01T21:33:19.122Z,18.30
2023-03-01T21:43:41.457Z,17.88
2023-03-01T21:54:03.516Z,18.35
2023-03-01T22:04:25.322Z,19.98
2023-03-01T22:14:46.362Z,18.95
2023-03-01T22:25:09.061Z,19.52
2023-03-01T22:35:30.097Z,23.20
2023-03-01T22:45:51.376Z,19.60
2023-03-01T22:56:15.503Z,18.63
2023-03-01T23:06:50.469Z,18.92
2023-03-01T23:17:13.241Z,21.15
2023-03-01T23:27:37.388Z,21.55
2023-03-01T23:37:58.416Z,20.65
2023-03-01T23:48:20.045Z,25.45
2023-03-01T23:58:41.226Z,22.15
